sensor_id;sensor_type;location;lat;lon;timestamp;pressure;altitude;pressure_sealevel;temperature;humidity
52949;BME280;38812;50.942;3.644;2023-04-27T00:01:13;102004.59;;;4.39;100.00
52949;BME280;38812;50.942;3.644;2023-04-27T00:03:40;101993.22;;;4.34;100.00
52949;BME280;38812;50.942;3.644;2023-04-27T00:06:07;102002.97;;;4.43;100.00
52949;BME280;38812;50.942;3.644;2023-04-27T00:08:33;102008.50;;;4.58;100.00
52949;BME280;38812;50.942;3.644;2023-04-27T00:10:58;102010.31;;;4.62;100.00
52949;BME280;38812;50.942;3.644;2023-04-27T00:13:24;101993.56;;;4.50;100.00
52949;BME280;38812;50.942;3.644;2023-04-27T00:15:50;102008.97;;;4.40;100.00
52949;BME280;38812;50.942;3.644;2023-04-27T00:18:15;102006.72;;;4.18;100.00
52949;BME280;38812;50.942;3.644;2023-04-27T00:20:41;102011.47;;;4.00;100.00
52949;BME280;38812;50.942;3.644;2023-04-27T00:23:07;102015.59;;;3.92;100.00
52949;BME280;38812;50.942;3.644;2023-04-27T00:25:32;102019.91;;;3.90;100.00
52949;BME280;38812;50.942;3.644;2023-04-27T00:27:57;102024.19;;;3.88;100.00
52949;BME280;38812;50.942;3.644;2023-04-27T00:30:23;102014.19;;;3.70;100.00
52949;BME280;38812;50.942;3.644;2023-04-27T00:32:48;102016.47;;;3.58;100.00
52949;BME280;38812;50.942;3.644;2023-04-27T00:35:13;102013.00;;;3.57;100.00
52949;BME280;38812;50.942;3.644;2023-04-27T00:37:39;102007.06;;;3.61;100.00
52949;BME280;38812;50.942;3.644;2023-04-27T00:40:05;102001.84;;;3.61;100.00
52949;BME280;38812;50.942;3.644;2023-04-27T00:42:34;101992.88;;;3.83;100.00
52949;BME280;38812;50.942;3.644;2023-04-27T00:44:59;101981.53;;;3.79;100.00
52949;BME280;38812;50.942;3.644;2023-04-27T00:47:28;101975.16;;;3.67;100.00
52949;BME280;38812;50.942;3.644;2023-04-27T00:49:54;101995.13;;;3.69;100.00
52949;BME280;38812;50.942;3.644;2023-04-27T00:52:20;101983.91;;;3.72;100.00
52949;BME280;38812;50.942;3.644;2023-04-27T00:54:48;101970.50;;;3.55;100.00
52949;BME280;38812;50.942;3.644;2023-04-27T00:57:14;101988.91;;;3.63;100.00
52949;BME280;38812;50.942;3.644;2023-04-27T00:59:40;101971.97;;;3.44;100.00
52949;BME280;38812;50.942;3.644;2023-04-27T01:02:05;101985.47;;;3.31;100.00
52949;BME280;38812;50.942;3.644;2023-04-27T01:04:31;101986.22;;;3.27;100.00
52949;BME280;38812;50.942;3.644;2023-04-27T01:06:57;101983.69;;;3.30;100.00
52949;BME280;38812;50.942;3.644;2023-04-27T01:09:22;101990.50;;;3.25;100.00
52949;BME280;38812;50.942;3.644;2023-04-27T01:11:47;101981.25;;;3.03;100.00
52949;BME280;38812;50.942;3.644;2023-04-27T01:14:13;101989.56;;;2.91;100.00
52949;BME280;38812;50.942;3.644;2023-04-27T01:16:38;101976.41;;;2.85;100.00
52949;BME280;38812;50.942;3.644;2023-04-27T01:19:06;101980.34;;;2.71;100.00
52949;BME280;38812;50.942;3.644;2023-04-27T01:21:31;101971.53;;;2.66;100.00
52949;BME280;38812;50.942;3.644;2023-04-27T01:23:57;101994.00;;;2.65;100.00
52949;BME280;38812;50.942;3.644;2023-04-27T01:26:22;101988.41;;;2.52;100.00
52949;BME280;38812;50.942;3.644;2023-04-27T01:28:48;101984.19;;;2.55;100.00
52949;BME280;38812;50.942;3.644;2023-04-27T01:31:13;101978.13;;;2.55;100.00
52949;BME280;38812;50.942;3.644;2023-04-27T01:33:40;101980.06;;;2.62;100.00
52949;BME280;38812;50.942;3.644;2023-04-27T01:36:06;101970.41;;;2.56;100.00
52949;BME280;38812;50.942;3.644;2023-04-27T01:38:32;101965.94;;;2.52;100.00
52949;BME280;38812;50.942;3.644;2023-04-27T01:40:58;101972.06;;;2.54;100.00
52949;BME280;38812;50.942;3.644;2023-04-27T01:43:29;101969.22;;;2.47;100.00
52949;BME280;38812;50.942;3.644;2023-04-27T01:45:55;101964.34;;;2.56;100.00
52949;BME280;38812;50.942;3.644;2023-04-27T01:48:21;101968.72;;;2.58;100.00
52949;BME280;38812;50.942;3.644;2023-04-27T01:50:47;101957.28;;;2.52;100.00
52949;BME280;38812;50.942;3.644;2023-04-27T01:53:12;101970.91;;;2.45;100.00
52949;BME280;38812;50.942;3.644;2023-04-27T01:55:37;101951.41;;;2.29;100.00
52949;BME280;38812;50.942;3.644;2023-04-27T01:58:03;101936.88;;;2.34;100.00
52949;BME280;38812;50.942;3.644;2023-04-27T02:00:28;101944.13;;;2.46;100.00
52949;BME280;38812;50.942;3.644;2023-04-27T02:02:54;101951.34;;;2.56;100.00
52949;BME280;38812;50.942;3.644;2023-04-27T02:05:22;101949.69;;;2.58;100.00
52949;BME280;38812;50.942;3.644;2023-04-27T02:07:47;101952.53;;;2.67;100.00
52949;BME280;38812;50.942;3.644;2023-04-27T02:10:13;101942.09;;;2.65;100.00
52949;BME280;38812;50.942;3.644;2023-04-27T02:12:38;101949.75;;;2.59;100.00
52949;BME280;38812;50.942;3.644;2023-04-27T02:15:04;101948.22;;;2.37;100.00
52949;BME280;38812;50.942;3.644;2023-04-27T02:17:33;101932.19;;;2.22;100.00
52949;BME280;38812;50.942;3.644;2023-04-27T02:19:58;101948.03;;;2.31;100.00
52949;BME280;38812;50.942;3.644;2023-04-27T02:22:23;101955.81;;;2.31;100.00
52949;BME280;38812;50.942;3.644;2023-04-27T02:24:49;101955.25;;;2.41;100.00
52949;BME280;38812;50.942;3.644;2023-04-27T02:27:14;101953.16;;;2.58;100.00
52949;BME280;38812;50.942;3.644;2023-04-27T02:29:39;101948.19;;;2.66;100.00
52949;BME280;38812;50.942;3.644;2023-04-27T02:32:05;101947.25;;;2.64;100.00
52949;BME280;38812;50.942;3.644;2023-04-27T02:34:31;101953.50;;;2.70;100.00
52949;BME280;38812;50.942;3.644;2023-04-27T02:36:56;101964.66;;;2.68;100.00
52949;BME280;38812;50.942;3.644;2023-04-27T02:39:21;101960.53;;;2.45;100.00
52949;BME280;38812;50.942;3.644;2023-04-27T02:41:47;101963.69;;;2.34;100.00
52949;BME280;38812;50.942;3.644;2023-04-27T02:44:12;101951.66;;;2.36;100.00
52949;BME280;38812;50.942;3.644;2023-04-27T02:46:37;101957.88;;;2.43;100.00
52949;BME280;38812;50.942;3.644;2023-04-27T02:49:03;101945.78;;;2.14;100.00
52949;BME280;38812;50.942;3.644;2023-04-27T02:51:28;101961.44;;;2.18;100.00
52949;BME280;38812;50.942;3.644;2023-04-27T02:53:53;101968.38;;;2.19;100.00
52949;BME280;38812;50.942;3.644;2023-04-27T02:56:19;101968.88;;;2.34;100.00
52949;BME280;38812;50.942;3.644;2023-04-27T02:58:44;101962.81;;;2.34;100.00
52949;BME280;38812;50.942;3.644;2023-04-27T03:01:13;101960.06;;;2.29;100.00
52949;BME280;38812;50.942;3.644;2023-04-27T03:03:38;101954.19;;;2.35;100.00
52949;BME280;38812;50.942;3.644;2023-04-27T03:06:04;101962.97;;;2.40;100.00
52949;BME280;38812;50.942;3.644;2023-04-27T03:08:29;101964.63;;;2.36;100.00
52949;BME280;38812;50.942;3.644;2023-04-27T03:10:55;101968.78;;;2.31;100.00
52949;BME280;38812;50.942;3.644;2023-04-27T03:13:20;101964.34;;;2.27;100.00
52949;BME280;38812;50.942;3.644;2023-04-27T03:15:46;101971.84;;;2.20;100.00
52949;BME280;38812;50.942;3.644;2023-04-27T03:18:11;101967.03;;;2.03;100.00
52949;BME280;38812;50.942;3.644;2023-04-27T03:20:37;101960.88;;;2.00;100.00
52949;BME280;38812;50.942;3.644;2023-04-27T03:23:02;101964.06;;;1.91;100.00
52949;BME280;38812;50.942;3.644;2023-04-27T03:25:28;101959.25;;;1.77;100.00
52949;BME280;38812;50.942;3.644;2023-04-27T03:27:53;101953.06;;;1.71;100.00
52949;BME280;38812;50.942;3.644;2023-04-27T03:30:18;101953.97;;;1.72;100.00
52949;BME280;38812;50.942;3.644;2023-04-27T03:32:44;101965.22;;;1.74;100.00
52949;BME280;38812;50.942;3.644;2023-04-27T03:35:09;101952.88;;;1.65;100.00
52949;BME280;38812;50.942;3.644;2023-04-27T03:37:35;101968.91;;;1.81;100.00
52949;BME280;38812;50.942;3.644;2023-04-27T03:40:00;101961.06;;;1.79;100.00
52949;BME280;38812;50.942;3.644;2023-04-27T03:42:26;101957.19;;;1.92;100.00
52949;BME280;38812;50.942;3.644;2023-04-27T03:44:51;101960.91;;;1.75;100.00
52949;BME280;38812;50.942;3.644;2023-04-27T03:47:16;101953.06;;;1.71;100.00
52949;BME280;38812;50.942;3.644;2023-04-27T03:49:42;101962.94;;;1.83;100.00
52949;BME280;38812;50.942;3.644;2023-04-27T03:52:07;101977.81;;;1.89;100.00
52949;BME280;38812;50.942;3.644;2023-04-27T03:54:32;101978.75;;;1.91;100.00
52949;BME280;38812;50.942;3.644;2023-04-27T03:56:58;101978.44;;;1.82;100.00
52949;BME280;38812;50.942;3.644;2023-04-27T03:59:23;101981.38;;;1.92;100.00
52949;BME280;38812;50.942;3.644;2023-04-27T04:01:48;101977.59;;;1.83;100.00
52949;BME280;38812;50.942;3.644;2023-04-27T04:04:14;101969.00;;;1.84;100.00
52949;BME280;38812;50.942;3.644;2023-04-27T04:06:39;101972.72;;;1.92;100.00
52949;BME280;38812;50.942;3.644;2023-04-27T04:09:05;101969.09;;;1.87;100.00
52949;BME280;38812;50.942;3.644;2023-04-27T04:11:30;101976.94;;;1.88;100.00
52949;BME280;38812;50.942;3.644;2023-04-27T04:13:56;101971.34;;;1.76;100.00
52949;BME280;38812;50.942;3.644;2023-04-27T04:16:21;101977.28;;;1.72;100.00
52949;BME280;38812;50.942;3.644;2023-04-27T04:18:47;101956.94;;;1.59;100.00
52949;BME280;38812;50.942;3.644;2023-04-27T04:21:12;101977.22;;;1.70;100.00
52949;BME280;38812;50.942;3.644;2023-04-27T04:23:38;101977.84;;;1.63;100.00
52949;BME280;38812;50.942;3.644;2023-04-27T04:26:05;101978.44;;;1.56;100.00
52949;BME280;38812;50.942;3.644;2023-04-27T04:28:31;101985.81;;;1.69;100.00
52949;BME280;38812;50.942;3.644;2023-04-27T04:30:56;101987.25;;;1.61;100.00
52949;BME280;38812;50.942;3.644;2023-04-27T04:33:23;101974.56;;;1.69;100.00
52949;BME280;38812;50.942;3.644;2023-04-27T04:35:48;101989.00;;;1.88;100.00
52949;BME280;38812;50.942;3.644;2023-04-27T04:38:13;101992.47;;;1.88;100.00
52949;BME280;38812;50.942;3.644;2023-04-27T04:40:39;101999.44;;;1.89;100.00
52949;BME280;38812;50.942;3.644;2023-04-27T04:43:05;102000.00;;;1.81;100.00
52949;BME280;38812;50.942;3.644;2023-04-27T04:45:31;101989.63;;;1.81;100.00
52949;BME280;38812;50.942;3.644;2023-04-27T04:47:56;101995.91;;;1.87;100.00
52949;BME280;38812;50.942;3.644;2023-04-27T04:50:22;101996.63;;;2.10;100.00
52949;BME280;38812;50.942;3.644;2023-04-27T04:52:48;101998.13;;;2.30;100.00
52949;BME280;38812;50.942;3.644;2023-04-27T04:55:13;102003.59;;;2.39;100.00
52949;BME280;38812;50.942;3.644;2023-04-27T04:57:39;102009.94;;;2.49;100.00
52949;BME280;38812;50.942;3.644;2023-04-27T05:00:05;102011.06;;;2.57;100.00
52949;BME280;38812;50.942;3.644;2023-04-27T05:02:38;102011.50;;;2.72;100.00
52949;BME280;38812;50.942;3.644;2023-04-27T05:05:03;102012.50;;;3.07;100.00
52949;BME280;38812;50.942;3.644;2023-04-27T05:07:29;102008.94;;;3.67;100.00
52949;BME280;38812;50.942;3.644;2023-04-27T05:09:54;102002.91;;;4.04;100.00
52949;BME280;38812;50.942;3.644;2023-04-27T05:12:20;102010.22;;;4.20;100.00
52949;BME280;38812;50.942;3.644;2023-04-27T05:14:46;102009.03;;;4.43;100.00
52949;BME280;38812;50.942;3.644;2023-04-27T05:17:12;101997.22;;;5.00;100.00
52949;BME280;38812;50.942;3.644;2023-04-27T05:19:38;101997.94;;;5.36;100.00
52949;BME280;38812;50.942;3.644;2023-04-27T05:22:03;101993.94;;;5.55;100.00
52949;BME280;38812;50.942;3.644;2023-04-27T05:24:28;101989.69;;;6.11;100.00
52949;BME280;38812;50.942;3.644;2023-04-27T05:26:54;101989.69;;;6.73;100.00
52949;BME280;38812;50.942;3.644;2023-04-27T05:29:20;101989.16;;;7.00;100.00
52949;BME280;38812;50.942;3.644;2023-04-27T05:31:45;101999.75;;;6.44;100.00
52949;BME280;38812;50.942;3.644;2023-04-27T05:34:11;101997.19;;;6.47;100.00
52949;BME280;38812;50.942;3.644;2023-04-27T05:36:37;101991.47;;;6.14;100.00
52949;BME280;38812;50.942;3.644;2023-04-27T05:39:03;101995.91;;;6.19;100.00
52949;BME280;38812;50.942;3.644;2023-04-27T05:41:28;102000.56;;;6.40;100.00
52949;BME280;38812;50.942;3.644;2023-04-27T05:43:54;102002.16;;;6.93;100.00
52949;BME280;38812;50.942;3.644;2023-04-27T05:46:19;102002.75;;;7.49;100.00
52949;BME280;38812;50.942;3.644;2023-04-27T05:48:45;101998.31;;;8.40;100.00
52949;BME280;38812;50.942;3.644;2023-04-27T05:51:11;101995.88;;;8.78;100.00
52949;BME280;38812;50.942;3.644;2023-04-27T05:53:37;102000.81;;;8.31;100.00
52949;BME280;38812;50.942;3.644;2023-04-27T05:56:02;102009.19;;;7.84;100.00
52949;BME280;38812;50.942;3.644;2023-04-27T05:58:31;102004.13;;;8.06;100.00
52949;BME280;38812;50.942;3.644;2023-04-27T06:00:57;101995.69;;;8.45;100.00
52949;BME280;38812;50.942;3.644;2023-04-27T06:03:23;101994.06;;;8.68;100.00
52949;BME280;38812;50.942;3.644;2023-04-27T06:05:53;101996.72;;;8.74;100.00
52949;BME280;38812;50.942;3.644;2023-04-27T06:08:20;102003.00;;;9.11;100.00
52949;BME280;38812;50.942;3.644;2023-04-27T06:10:45;101984.53;;;8.78;100.00
52949;BME280;38812;50.942;3.644;2023-04-27T06:13:10;101992.22;;;8.44;100.00
52949;BME280;38812;50.942;3.644;2023-04-27T06:15:36;101991.59;;;7.68;100.00
52949;BME280;38812;50.942;3.644;2023-04-27T06:18:01;101978.50;;;7.67;100.00
52949;BME280;38812;50.942;3.644;2023-04-27T06:20:27;101991.97;;;7.20;100.00
52949;BME280;38812;50.942;3.644;2023-04-27T06:22:52;101977.25;;;7.27;100.00
52949;BME280;38812;50.942;3.644;2023-04-27T06:25:17;101980.19;;;7.62;100.00
52949;BME280;38812;50.942;3.644;2023-04-27T06:27:43;101984.66;;;7.70;100.00
52949;BME280;38812;50.942;3.644;2023-04-27T06:30:08;101981.00;;;7.53;100.00
52949;BME280;38812;50.942;3.644;2023-04-27T06:32:34;101980.56;;;8.00;100.00
52949;BME280;38812;50.942;3.644;2023-04-27T06:34:59;101983.06;;;7.90;100.00
52949;BME280;38812;50.942;3.644;2023-04-27T06:37:25;101977.34;;;8.37;100.00
52949;BME280;38812;50.942;3.644;2023-04-27T06:39:51;101972.13;;;8.46;100.00
52949;BME280;38812;50.942;3.644;2023-04-27T06:42:16;101981.34;;;7.93;100.00
52949;BME280;38812;50.942;3.644;2023-04-27T06:44:41;101973.88;;;8.40;100.00
52949;BME280;38812;50.942;3.644;2023-04-27T06:47:07;101975.72;;;8.62;100.00
52949;BME280;38812;50.942;3.644;2023-04-27T06:49:32;101979.25;;;8.64;100.00
52949;BME280;38812;50.942;3.644;2023-04-27T06:51:57;101965.22;;;8.57;100.00
52949;BME280;38812;50.942;3.644;2023-04-27T06:54:24;101957.28;;;8.39;100.00
52949;BME280;38812;50.942;3.644;2023-04-27T06:56:49;101964.97;;;8.16;100.00
52949;BME280;38812;50.942;3.644;2023-04-27T06:59:14;101965.03;;;8.32;100.00
52949;BME280;38812;50.942;3.644;2023-04-27T07:01:40;101953.97;;;8.80;100.00
52949;BME280;38812;50.942;3.644;2023-04-27T07:04:06;101955.84;;;9.20;100.00
52949;BME280;38812;50.942;3.644;2023-04-27T07:06:31;101969.78;;;9.12;100.00
52949;BME280;38812;50.942;3.644;2023-04-27T07:08:57;101978.38;;;8.73;100.00
52949;BME280;38812;50.942;3.644;2023-04-27T07:11:23;101959.22;;;8.80;100.00
52949;BME280;38812;50.942;3.644;2023-04-27T07:13:48;101973.22;;;8.94;100.00
52949;BME280;38812;50.942;3.644;2023-04-27T07:16:15;101970.66;;;9.14;100.00
52949;BME280;38812;50.942;3.644;2023-04-27T07:18:40;101962.88;;;9.49;100.00
52949;BME280;38812;50.942;3.644;2023-04-27T07:21:06;101964.66;;;9.86;100.00
52949;BME280;38812;50.942;3.644;2023-04-27T07:23:31;101955.03;;;9.84;100.00
52949;BME280;38812;50.942;3.644;2023-04-27T07:25:57;101959.41;;;9.71;100.00
52949;BME280;38812;50.942;3.644;2023-04-27T07:28:23;101948.91;;;9.83;100.00
52949;BME280;38812;50.942;3.644;2023-04-27T07:30:48;101960.25;;;9.96;100.00
52949;BME280;38812;50.942;3.644;2023-04-27T07:33:14;101952.41;;;9.73;100.00
52949;BME280;38812;50.942;3.644;2023-04-27T07:35:40;101959.38;;;10.08;100.00
52949;BME280;38812;50.942;3.644;2023-04-27T07:38:06;101967.22;;;10.43;100.00
52949;BME280;38812;50.942;3.644;2023-04-27T07:40:32;101955.81;;;10.45;100.00
52949;BME280;38812;50.942;3.644;2023-04-27T07:42:59;101945.38;;;10.30;100.00
52949;BME280;38812;50.942;3.644;2023-04-27T07:45:24;101950.59;;;10.39;100.00
52949;BME280;38812;50.942;3.644;2023-04-27T07:47:57;101955.81;;;10.48;100.00
52949;BME280;38812;50.942;3.644;2023-04-27T07:50:24;101950.63;;;10.21;100.00
52949;BME280;38812;50.942;3.644;2023-04-27T07:52:52;101953.25;;;10.12;100.00
52949;BME280;38812;50.942;3.644;2023-04-27T07:55:18;101960.25;;;10.08;100.00
52949;BME280;38812;50.942;3.644;2023-04-27T07:57:43;101957.56;;;10.46;100.00
52949;BME280;38812;50.942;3.644;2023-04-27T08:00:09;101953.09;;;10.80;100.00
52949;BME280;38812;50.942;3.644;2023-04-27T08:02:35;101946.94;;;10.80;100.00
52949;BME280;38812;50.942;3.644;2023-04-27T08:05:00;101939.06;;;10.78;100.00
52949;BME280;38812;50.942;3.644;2023-04-27T08:07:27;101949.59;;;10.74;100.00
52949;BME280;38812;50.942;3.644;2023-04-27T08:09:52;101948.50;;;11.17;100.00
52949;BME280;38812;50.942;3.644;2023-04-27T08:12:18;101949.25;;;11.34;100.00
52949;BME280;38812;50.942;3.644;2023-04-27T08:14:44;101948.38;;;11.36;100.00
52949;BME280;38812;50.942;3.644;2023-04-27T08:17:09;101955.38;;;11.41;100.00
52949;BME280;38812;50.942;3.644;2023-04-27T08:19:36;101939.53;;;11.47;100.00
52949;BME280;38812;50.942;3.644;2023-04-27T08:22:01;101950.69;;;11.75;100.00
52949;BME280;38812;50.942;3.644;2023-04-27T08:24:27;101945.19;;;12.06;100.00
52949;BME280;38812;50.942;3.644;2023-04-27T08:26:53;101946.13;;;11.98;100.00
52949;BME280;38812;50.942;3.644;2023-04-27T08:29:18;101937.50;;;11.84;100.00
52949;BME280;38812;50.942;3.644;2023-04-27T08:31:44;101944.31;;;12.07;100.00
52949;BME280;38812;50.942;3.644;2023-04-27T08:34:09;101942.53;;;12.12;99.50
52949;BME280;38812;50.942;3.644;2023-04-27T08:36:35;101923.88;;;12.31;89.78
52949;BME280;38812;50.942;3.644;2023-04-27T08:39:01;101937.31;;;12.81;98.21
52949;BME280;38812;50.942;3.644;2023-04-27T08:41:26;101926.44;;;13.05;84.02
52949;BME280;38812;50.942;3.644;2023-04-27T08:43:51;101932.44;;;13.18;75.23
52949;BME280;38812;50.942;3.644;2023-04-27T08:46:21;101939.53;;;13.11;80.70
52949;BME280;38812;50.942;3.644;2023-04-27T08:48:51;101948.88;;;13.36;81.76
52949;BME280;38812;50.942;3.644;2023-04-27T08:51:17;101953.34;;;13.31;82.27
52949;BME280;38812;50.942;3.644;2023-04-27T08:53:47;101961.06;;;12.78;81.47
52949;BME280;38812;50.942;3.644;2023-04-27T08:56:13;101956.22;;;12.44;85.42
52949;BME280;38812;50.942;3.644;2023-04-27T08:58:38;101942.41;;;12.21;80.51
52949;BME280;38812;50.942;3.644;2023-04-27T09:01:05;101949.97;;;12.54;83.15
52949;BME280;38812;50.942;3.644;2023-04-27T09:03:33;101937.50;;;12.67;83.85
52949;BME280;38812;50.942;3.644;2023-04-27T09:06:00;101946.94;;;12.83;73.69
52949;BME280;38812;50.942;3.644;2023-04-27T09:08:25;101943.59;;;12.70;84.99
52949;BME280;38812;50.942;3.644;2023-04-27T09:10:52;101945.44;;;12.62;82.38
52949;BME280;38812;50.942;3.644;2023-04-27T09:13:18;101948.84;;;12.74;73.66
52949;BME280;38812;50.942;3.644;2023-04-27T09:15:46;101939.44;;;12.53;67.78
52949;BME280;38812;50.942;3.644;2023-04-27T09:18:16;101943.09;;;12.40;70.08
52949;BME280;38812;50.942;3.644;2023-04-27T09:20:43;101955.94;;;12.68;74.01
52949;BME280;38812;50.942;3.644;2023-04-27T09:23:09;101942.53;;;12.85;68.75
52949;BME280;38812;50.942;3.644;2023-04-27T09:25:34;101948.31;;;13.13;66.67
52949;BME280;38812;50.942;3.644;2023-04-27T09:28:00;101944.75;;;13.20;66.62
52949;BME280;38812;50.942;3.644;2023-04-27T09:30:26;101931.59;;;13.13;64.83
52949;BME280;38812;50.942;3.644;2023-04-27T09:32:54;101935.13;;;13.16;64.20
52949;BME280;38812;50.942;3.644;2023-04-27T09:35:24;101928.31;;;13.57;64.73
52949;BME280;38812;50.942;3.644;2023-04-27T09:37:51;101942.91;;;13.22;65.63
52949;BME280;38812;50.942;3.644;2023-04-27T09:40:18;101934.09;;;13.23;65.07
52949;BME280;38812;50.942;3.644;2023-04-27T09:42:45;101930.13;;;13.55;63.23
52949;BME280;38812;50.942;3.644;2023-04-27T09:45:10;101922.78;;;13.72;60.34
52949;BME280;38812;50.942;3.644;2023-04-27T09:47:37;101926.50;;;13.62;61.80
52949;BME280;38812;50.942;3.644;2023-04-27T09:50:04;101934.75;;;14.39;63.10
52949;BME280;38812;50.942;3.644;2023-04-27T09:52:29;101928.88;;;14.71;59.67
52949;BME280;38812;50.942;3.644;2023-04-27T09:54:56;101917.63;;;14.60;61.90
52949;BME280;38812;50.942;3.644;2023-04-27T10:09:24;101910.03;;;13.45;61.24
52949;BME280;38812;50.942;3.644;2023-04-27T10:11:53;101903.91;;;13.43;61.08
52949;BME280;38812;50.942;3.644;2023-04-27T10:14:21;101912.13;;;13.78;63.42
52949;BME280;38812;50.942;3.644;2023-04-27T10:16:51;101909.69;;;14.14;60.56
52949;BME280;38812;50.942;3.644;2023-04-27T10:19:17;101902.16;;;13.92;58.51
52949;BME280;38812;50.942;3.644;2023-04-27T10:24:30;101898.94;;;13.77;57.28
52949;BME280;38812;50.942;3.644;2023-04-27T10:27:03;101889.00;;;13.89;62.98
52949;BME280;38812;50.942;3.644;2023-04-27T10:29:37;101901.22;;;13.46;58.46
52949;BME280;38812;50.942;3.644;2023-04-27T10:32:29;101895.03;;;13.47;59.51
52949;BME280;38812;50.942;3.644;2023-04-27T10:35:05;101899.72;;;13.83;56.11
52949;BME280;38812;50.942;3.644;2023-04-27T10:37:39;101902.00;;;14.01;55.95
52949;BME280;38812;50.942;3.644;2023-04-27T10:40:06;101894.47;;;13.82;56.04
52949;BME280;38812;50.942;3.644;2023-04-27T10:42:32;101874.38;;;13.71;57.74
52949;BME280;38812;50.942;3.644;2023-04-27T10:44:57;101865.06;;;14.00;58.93
52949;BME280;38812;50.942;3.644;2023-04-27T10:47:23;101841.66;;;14.25;59.45
52949;BME280;38812;50.942;3.644;2023-04-27T10:49:52;101846.50;;;14.48;56.42
52949;BME280;38812;50.942;3.644;2023-04-27T10:52:20;101843.84;;;14.49;56.09
52949;BME280;38812;50.942;3.644;2023-04-27T10:54:46;101858.59;;;14.15;54.25
52949;BME280;38812;50.942;3.644;2023-04-27T10:57:11;101846.00;;;13.84;58.83
52949;BME280;38812;50.942;3.644;2023-04-27T10:59:51;101842.06;;;14.05;57.92
52949;BME280;38812;50.942;3.644;2023-04-27T11:02:25;101848.03;;;14.15;58.45
52949;BME280;38812;50.942;3.644;2023-04-27T11:04:51;101855.34;;;14.00;58.52
52949;BME280;38812;50.942;3.644;2023-04-27T11:07:26;101852.78;;;13.97;55.65
52949;BME280;38812;50.942;3.644;2023-04-27T11:09:52;101847.78;;;14.27;56.36
52949;BME280;38812;50.942;3.644;2023-04-27T11:12:18;101837.88;;;13.93;52.05
52949;BME280;38812;50.942;3.644;2023-04-27T11:14:43;101847.28;;;14.51;53.90
52949;BME280;38812;50.942;3.644;2023-04-27T11:17:09;101843.56;;;14.61;54.78
52949;BME280;38812;50.942;3.644;2023-04-27T11:19:44;101840.13;;;14.56;57.15
52949;BME280;38812;50.942;3.644;2023-04-27T11:22:11;101841.59;;;14.28;53.51
52949;BME280;38812;50.942;3.644;2023-04-27T11:24:36;101842.41;;;14.30;53.17
52949;BME280;38812;50.942;3.644;2023-04-27T11:27:10;101844.16;;;14.31;54.68
52949;BME280;38812;50.942;3.644;2023-04-27T11:29:38;101839.63;;;14.37;53.08
52949;BME280;38812;50.942;3.644;2023-04-27T11:32:04;101841.66;;;14.25;56.03
52949;BME280;38812;50.942;3.644;2023-04-27T11:34:29;101835.16;;;14.43;54.90
52949;BME280;38812;50.942;3.644;2023-04-27T11:37:05;101822.09;;;15.12;52.43
52949;BME280;38812;50.942;3.644;2023-04-27T11:39:33;101817.69;;;15.13;51.90
52949;BME280;38812;50.942;3.644;2023-04-27T11:42:17;101816.59;;;15.20;49.83
52949;BME280;38812;50.942;3.644;2023-04-27T11:44:50;101807.91;;;14.78;51.92
52949;BME280;38812;50.942;3.644;2023-04-27T11:47:16;101814.16;;;14.73;52.30
52949;BME280;38812;50.942;3.644;2023-04-27T11:49:46;101820.97;;;14.85;52.02
52949;BME280;38812;50.942;3.644;2023-04-27T11:52:12;101809.78;;;14.72;47.83
52949;BME280;38812;50.942;3.644;2023-04-27T11:54:38;101799.38;;;15.03;52.79
52949;BME280;38812;50.942;3.644;2023-04-27T11:57:04;101806.84;;;14.86;51.52
52949;BME280;38812;50.942;3.644;2023-04-27T11:59:30;101798.16;;;14.80;49.85
52949;BME280;38812;50.942;3.644;2023-04-27T12:01:55;101798.19;;;14.78;54.43
52949;BME280;38812;50.942;3.644;2023-04-27T12:04:21;101789.88;;;14.56;52.49
52949;BME280;38812;50.942;3.644;2023-04-27T12:06:46;101809.34;;;14.54;50.60
52949;BME280;38812;50.942;3.644;2023-04-27T12:09:11;101797.03;;;14.91;49.78
52949;BME280;38812;50.942;3.644;2023-04-27T12:11:37;101791.00;;;15.20;50.87
52949;BME280;38812;50.942;3.644;2023-04-27T12:14:02;101796.47;;;15.14;53.75
52949;BME280;38812;50.942;3.644;2023-04-27T12:16:28;101791.78;;;14.90;50.86
52949;BME280;38812;50.942;3.644;2023-04-27T12:18:53;101785.56;;;15.26;53.52
52949;BME280;38812;50.942;3.644;2023-04-27T12:21:19;101785.78;;;15.17;52.50
52949;BME280;38812;50.942;3.644;2023-04-27T12:23:45;101778.84;;;15.13;50.75
52949;BME280;38812;50.942;3.644;2023-04-27T12:26:11;101780.25;;;15.26;50.53
52949;BME280;38812;50.942;3.644;2023-04-27T12:28:36;101782.03;;;15.26;54.67
52949;BME280;38812;50.942;3.644;2023-04-27T12:31:02;101785.03;;;15.12;53.17
52949;BME280;38812;50.942;3.644;2023-04-27T12:33:28;101781.22;;;15.24;50.58
52949;BME280;38812;50.942;3.644;2023-04-27T12:35:54;101779.28;;;14.95;50.01
52949;BME280;38812;50.942;3.644;2023-04-27T12:38:19;101771.44;;;15.60;56.25
52949;BME280;38812;50.942;3.644;2023-04-27T12:40:46;101767.16;;;15.56;53.17
52949;BME280;38812;50.942;3.644;2023-04-27T12:43:12;101771.16;;;15.70;52.33
52949;BME280;38812;50.942;3.644;2023-04-27T12:45:37;101751.22;;;15.88;50.48
52949;BME280;38812;50.942;3.644;2023-04-27T12:48:03;101756.31;;;15.65;51.44
52949;BME280;38812;50.942;3.644;2023-04-27T12:50:29;101747.91;;;15.48;51.75
52949;BME280;38812;50.942;3.644;2023-04-27T12:52:55;101747.72;;;15.55;51.95
52949;BME280;38812;50.942;3.644;2023-04-27T12:55:20;101739.22;;;15.42;51.72
52949;BME280;38812;50.942;3.644;2023-04-27T12:57:46;101753.78;;;15.60;52.51
52949;BME280;38812;50.942;3.644;2023-04-27T13:00:12;101749.75;;;15.46;49.91